createdAt,value
2022-12-22T00:02:42.159Z,18582.44
2022-12-22T00:05:36.942Z,18598.69
2022-12-22T00:08:25.626Z,18582.44
2022-12-22T00:11:13.894Z,18586.50
2022-12-22T00:14:04.605Z,18602.75
2022-12-22T00:16:54.555Z,18574.28
2022-12-22T00:19:40.976Z,18625.09
2022-12-22T00:22:33.481Z,18631.19
2022-12-22T00:25:19.062Z,18606.81
2022-12-22T00:28:05.886Z,18574.28
2022-12-22T00:30:53.506Z,18596.66
2022-12-22T00:33:39.939Z,18619.00
2022-12-22T00:36:30.575Z,18653.53
2022-12-22T00:39:17.961Z,18608.84
2022-12-22T00:42:03.724Z,18623.06
2022-12-22T00:44:49.235Z,18614.94
2022-12-22T00:47:43.775Z,18612.91
2022-12-22T00:50:30.086Z,18625.09
2022-12-22T00:53:17.417Z,18633.22
2022-12-22T00:56:03.190Z,18629.16
2022-12-22T00:58:48.900Z,18686.03
2022-12-22T01:01:34.892Z,18639.31
2022-12-22T01:04:22.033Z,18657.59
2022-12-22T01:07:07.859Z,18649.47
2022-12-22T01:09:54.581Z,18661.66
2022-12-22T01:12:43.686Z,18631.19
2022-12-22T01:15:33.490Z,18623.06
2022-12-22T01:18:19.302Z,18608.84
2022-12-22T01:21:06.361Z,18608.84
2022-12-22T01:23:52.221Z,18631.19
2022-12-22T01:26:37.638Z,18645.41
2022-12-22T01:29:23.089Z,18631.19
2022-12-22T01:32:08.978Z,18574.28
2022-12-22T01:34:54.750Z,18558.03
2022-12-22T01:37:41.996Z,18586.50
2022-12-22T01:40:35.139Z,18531.63
2022-12-22T01:43:34.478Z,18531.63
2022-12-22T01:46:39.774Z,18513.34
2022-12-22T01:49:30.907Z,18537.72
2022-12-22T01:52:16.980Z,18527.56
2022-12-22T01:55:04.726Z,18523.50
2022-12-22T01:57:52.577Z,18519.44
2022-12-22T02:00:38.795Z,18507.25
2022-12-22T02:03:34.845Z,18513.34
2022-12-22T02:06:34.115Z,18527.56
2022-12-22T02:09:42.102Z,18521.47
2022-12-22T02:12:47.321Z,18535.69
2022-12-22T02:15:44.616Z,18505.22
2022-12-22T02:18:37.760Z,18529.59
2022-12-22T02:21:29.852Z,18566.16
2022-12-22T02:24:37.497Z,18596.66
2022-12-22T02:27:28.436Z,18543.81
2022-12-22T02:30:18.991Z,18537.72
2022-12-22T02:33:09.781Z,18549.91
2022-12-22T02:36:25.673Z,18562.09
2022-12-22T02:39:28.693Z,18545.84
2022-12-22T02:42:33.092Z,18553.97
2022-12-22T02:45:37.076Z,18543.81
2022-12-22T02:48:31.759Z,18560.06
2022-12-22T02:51:24.499Z,18572.25
2022-12-22T02:54:11.813Z,18543.81
2022-12-22T02:57:00.135Z,18572.25
2022-12-22T02:59:46.983Z,18592.59
2022-12-22T03:02:34.898Z,18598.69
2022-12-22T03:05:20.575Z,18621.03
2022-12-22T03:08:08.772Z,18598.69
2022-12-22T03:10:55.166Z,18643.38
2022-12-22T03:13:40.962Z,18669.78
2022-12-22T03:16:27.916Z,18659.63
2022-12-22T03:19:13.694Z,18651.50
2022-12-22T03:21:59.453Z,18631.19
2022-12-22T03:24:45.169Z,18661.66
2022-12-22T03:27:13.304Z,18653.53
2022-12-22T03:29:41.412Z,18657.59
2022-12-22T03:32:10.903Z,18686.03
2022-12-22T03:34:39.317Z,18677.91
2022-12-22T03:37:07.421Z,18661.66
2022-12-22T03:39:35.857Z,18671.81
2022-12-22T03:42:21.775Z,18612.91
2022-12-22T03:45:07.328Z,18669.78
2022-12-22T03:47:36.764Z,18663.69
2022-12-22T03:50:05.733Z,18649.47
2022-12-22T03:52:33.877Z,18647.44
2022-12-22T03:55:01.833Z,18647.44
2022-12-22T03:57:29.980Z,18629.16
2022-12-22T03:59:58.085Z,18623.06
2022-12-22T04:02:26.316Z,18684.00
2022-12-22T04:04:55.895Z,18655.56
2022-12-22T04:07:23.989Z,18659.63
2022-12-22T04:10:09.457Z,18704.31
2022-12-22T04:12:55.881Z,18667.75
2022-12-22T04:15:25.325Z,18631.19
2022-12-22T04:17:54.513Z,18690.09
2022-12-22T04:20:27.921Z,18710.44
2022-12-22T04:22:57.378Z,18704.31
2022-12-22T04:25:26.668Z,18694.16
2022-12-22T04:27:54.799Z,18686.03
2022-12-22T04:30:22.907Z,18675.88
2022-12-22T04:32:51.007Z,18704.31
2022-12-22T04:35:19.336Z,18702.28
2022-12-22T04:37:48.804Z,18700.25
2022-12-22T04:40:17.094Z,18716.53
2022-12-22T04:42:45.195Z,18675.88
2022-12-22T04:45:13.304Z,18706.38
2022-12-22T04:47:41.458Z,18702.28
2022-12-22T04:50:10.715Z,18700.25
2022-12-22T04:52:39.356Z,18722.63
2022-12-22T04:55:10.380Z,18696.19
2022-12-22T04:57:40.926Z,18663.69
2022-12-22T05:00:11.515Z,18694.16
2022-12-22T05:02:39.733Z,18742.94
2022-12-22T05:05:09.860Z,18696.19
2022-12-22T05:07:38.455Z,18692.13
2022-12-22T05:10:10.470Z,18698.22
2022-12-22T05:12:57.026Z,18702.28
2022-12-22T05:15:28.499Z,18675.88
2022-12-22T05:17:57.443Z,18651.50
2022-12-22T05:20:26.384Z,18665.72
2022-12-22T05:22:56.375Z,18643.38
2022-12-22T05:25:29.829Z,18653.53
2022-12-22T05:27:58.727Z,18653.53
2022-12-22T05:30:27.137Z,18653.53
2022-12-22T05:32:55.296Z,18661.66
2022-12-22T05:35:23.404Z,18665.72
2022-12-22T05:37:51.525Z,18631.19
2022-12-22T05:40:19.818Z,18629.16
2022-12-22T05:42:49.319Z,18639.31
2022-12-22T05:45:20.150Z,18647.44
2022-12-22T05:47:51.937Z,18675.88
2022-12-22T05:50:24.554Z,18645.41
2022-12-22T05:52:52.859Z,18637.28
2022-12-22T05:55:21.245Z,18667.75
2022-12-22T05:57:50.843Z,18639.31
2022-12-22T06:00:20.329Z,18675.88
2022-12-22T06:02:48.586Z,18663.69
2022-12-22T06:05:16.886Z,18665.72
2022-12-22T06:07:44.983Z,18673.84
2022-12-22T06:10:16.341Z,18661.66
2022-12-22T06:12:45.007Z,18651.50
2022-12-22T06:15:16.295Z,18663.69
2022-12-22T06:17:45.515Z,18645.41
2022-12-22T06:20:15.357Z,18659.63
2022-12-22T06:22:43.606Z,18627.13
2022-12-22T06:25:17.578Z,18663.69
2022-12-22T06:27:46.716Z,18643.38
2022-12-22T06:30:17.553Z,18645.41
2022-12-22T06:32:45.681Z,18659.63
2022-12-22T06:35:13.810Z,18667.75
2022-12-22T06:37:42.556Z,18684.00
2022-12-22T06:40:11.975Z,18692.13
2022-12-22T06:43:00.826Z,18663.69
2022-12-22T06:45:36.231Z,18688.06
2022-12-22T06:48:04.781Z,18692.13
2022-12-22T06:50:32.920Z,18706.38
2022-12-22T06:53:01.466Z,18710.44
2022-12-22T06:55:29.591Z,18694.16
2022-12-22T06:57:57.791Z,18686.03
2022-12-22T07:00:26.189Z,18708.41
2022-12-22T07:02:56.024Z,18712.47
2022-12-22T07:05:25.259Z,18706.38
2022-12-22T07:07:53.986Z,18726.69
2022-12-22T07:10:42.559Z,18726.69
2022-12-22T07:13:20.408Z,18726.69
2022-12-22T07:15:55.463Z,18708.41
2022-12-22T07:18:30.708Z,18720.59
2022-12-22T07:20:59.117Z,18716.53
2022-12-22T07:23:27.855Z,18747.00
2022-12-22T07:25:56.112Z,18724.66
2022-12-22T07:28:24.730Z,18702.28
2022-12-22T07:30:54.197Z,18718.56
2022-12-22T07:33:22.870Z,18726.69
2022-12-22T07:36:03.932Z,18702.28
2022-12-22T07:38:38.326Z,18696.19
2022-12-22T07:41:28.887Z,18710.44
2022-12-22T07:43:58.798Z,18710.44
2022-12-22T07:46:29.406Z,18704.31
2022-12-22T07:49:15.504Z,18702.28
2022-12-22T07:51:45.469Z,18684.00
2022-12-22T07:54:16.639Z,18692.13
2022-12-22T07:56:46.767Z,18724.66
2022-12-22T07:59:17.051Z,18684.00
2022-12-22T08:01:47.181Z,18657.59
2022-12-22T08:04:16.745Z,18671.81
2022-12-22T08:06:46.332Z,18647.44
2022-12-22T08:09:21.471Z,18667.75
2022-12-22T08:11:50.479Z,18700.25
2022-12-22T08:14:18.933Z,18663.69
2022-12-22T08:16:48.405Z,18669.78
2022-12-22T08:19:17.813Z,18653.53
2022-12-22T08:21:52.912Z,18679.94
2022-12-22T08:24:22.793Z,18625.09
2022-12-22T08:26:54.959Z,18651.50
2022-12-22T08:29:28.824Z,18649.47
2022-12-22T08:31:57.651Z,18661.66
2022-12-22T08:34:27.162Z,18631.19
2022-12-22T08:37:00.854Z,18655.56
2022-12-22T08:39:33.700Z,18661.66
2022-12-22T08:42:04.931Z,18655.56
2022-12-22T08:44:35.147Z,18675.88
2022-12-22T08:47:03.779Z,18649.47
2022-12-22T08:49:34.080Z,18653.53
2022-12-22T08:52:03.684Z,18631.19
2022-12-22T08:54:51.729Z,18639.31
2022-12-22T08:57:19.909Z,18635.25
2022-12-22T08:59:48.671Z,18635.25
2022-12-22T09:02:19.907Z,18631.19
2022-12-22T09:04:48.688Z,18610.88
2022-12-22T09:07:18.737Z,18623.06
2022-12-22T09:09:46.870Z,18643.38
2022-12-22T09:12:15.239Z,18639.31
2022-12-22T09:14:43.372Z,18629.16
2022-12-22T09:17:11.578Z,18610.88
2022-12-22T09:19:40.154Z,18635.25
2022-12-22T09:22:09.300Z,18627.13
2022-12-22T09:24:38.834Z,18627.13
2022-12-22T09:27:09.113Z,18625.09
2022-12-22T09:29:37.915Z,18608.84
2022-12-22T09:32:08.100Z,18592.59
2022-12-22T09:34:37.656Z,18623.06
2022-12-22T09:37:06.697Z,18582.44
2022-12-22T09:39:34.862Z,18610.88
2022-12-22T09:42:04.580Z,18621.03
2022-12-22T09:44:35.775Z,18610.88
2022-12-22T09:47:17.845Z,18641.34
2022-12-22T09:49:46.878Z,18625.09
2022-12-22T09:52:32.050Z,18655.56
2022-12-22T09:55:00.615Z,18614.94
2022-12-22T09:57:33.853Z,18619.00
2022-12-22T10:00:14.454Z,18641.34
2022-12-22T10:02:57.579Z,18661.66
2022-12-22T10:05:39.220Z,18663.69
2022-12-22T10:08:13.327Z,18651.50
2022-12-22T10:10:42.077Z,18651.50
2022-12-22T10:13:19.545Z,18671.81
2022-12-22T10:15:48.408Z,18704.31
2022-12-22T10:18:21.832Z,18690.09
2022-12-22T10:21:10.743Z,18665.72
2022-12-22T10:23:42.689Z,18686.03
2022-12-22T10:26:27.955Z,18688.06
2022-12-22T10:29:04.649Z,18690.09
2022-12-22T10:31:35.531Z,18686.03
2022-12-22T10:34:15.052Z,18671.81
2022-12-22T10:36:48.188Z,18677.91
2022-12-22T10:39:23.481Z,18665.72
2022-12-22T10:41:56.181Z,18696.19
2022-12-22T10:44:31.213Z,18704.31
2022-12-22T10:47:01.860Z,18714.50
2022-12-22T10:52:15.889Z,18690.09
2022-12-22T10:54:46.029Z,18706.38
2022-12-22T10:57:31.133Z,18712.47
2022-12-22T11:00:04.056Z,18696.19
2022-12-22T11:02:38.038Z,18722.63
2022-12-22T11:05:09.889Z,18763.25
2022-12-22T11:07:41.686Z,18765.28
2022-12-22T11:10:19.592Z,18775.44
2022-12-22T11:13:23.673Z,18724.66
2022-12-22T11:16:03.529Z,18814.03
2022-12-22T11:19:03.005Z,18749.03
2022-12-22T11:21:46.336Z,18797.78
2022-12-22T11:24:35.272Z,18812.00
2022-12-22T11:27:24.157Z,18789.66
2022-12-22T11:30:09.247Z,18846.56
2022-12-22T11:33:08.357Z,18828.28
2022-12-22T11:35:52.560Z,18822.19
2022-12-22T11:38:45.734Z,18799.81
2022-12-22T11:41:42.852Z,18828.28
2022-12-22T11:44:46.757Z,18858.75
2022-12-22T11:47:29.974Z,18870.94
2022-12-22T11:51:00.992Z,18862.81
2022-12-22T11:53:55.035Z,18856.72
2022-12-22T11:56:26.132Z,18872.97
2022-12-22T11:59:24.326Z,18858.75
2022-12-22T12:02:36.077Z,18877.03
2022-12-22T12:05:39.514Z,18875.00
2022-12-22T12:08:23.411Z,18850.63
2022-12-22T12:10:58.957Z,18933.94
2022-12-22T12:13:39.654Z,18889.22
2022-12-22T12:16:21.433Z,18868.91
2022-12-22T12:19:28.817Z,18895.31
2022-12-22T12:22:01.446Z,18877.03
2022-12-22T12:24:55.603Z,18899.38
2022-12-22T12:27:48.445Z,18870.94
2022-12-22T12:33:16.749Z,18846.56
2022-12-22T12:35:58.164Z,18834.38
2022-12-22T12:41:41.345Z,18801.84
2022-12-22T12:44:14.893Z,18805.91
2022-12-22T12:47:23.974Z,18755.13
2022-12-22T12:50:40.201Z,18740.91
2022-12-22T12:53:10.519Z,18742.94
2022-12-22T12:56:09.619Z,18736.84
2022-12-22T12:58:57.901Z,18716.53
2022-12-22T13:01:59.241Z,18677.91
2022-12-22T13:05:36.635Z,18706.38
2022-12-22T13:08:21.219Z,18681.97
2022-12-22T13:12:11.258Z,18677.91
2022-12-22T13:14:59.240Z,18641.34
2022-12-22T13:17:35.294Z,18647.44
2022-12-22T13:20:04.872Z,18647.44
2022-12-22T13:22:34.855Z,18661.66
2022-12-22T13:25:04.944Z,18702.28
2022-12-22T13:27:38.450Z,18655.56
2022-12-22T13:30:13.459Z,18651.50
2022-12-22T13:32:44.077Z,18651.50
2022-12-22T13:35:30.861Z,18619.00
2022-12-22T13:38:00.147Z,18619.00
2022-12-22T13:40:31.952Z,18594.63
2022-12-22T13:43:11.614Z,18606.81
2022-12-22T13:45:44.392Z,18621.03
2022-12-22T13:48:19.650Z,18598.69
2022-12-22T13:50:52.419Z,18623.06
2022-12-22T13:56:27.044Z,18623.06
2022-12-22T13:59:01.999Z,18637.28
2022-12-22T14:01:30.820Z,18590.56
2022-12-22T14:04:04.283Z,18594.63
2022-12-22T14:06:36.363Z,18586.50
2022-12-22T14:09:16.813Z,18600.72
2022-12-22T14:11:52.044Z,18578.38
2022-12-22T14:14:27.045Z,18590.56
2022-12-22T14:16:58.546Z,18614.94
2022-12-22T14:19:31.885Z,18586.50
2022-12-22T14:22:08.330Z,18594.63
2022-12-22T14:24:43.987Z,18598.69
2022-12-22T14:27:22.246Z,18588.53
2022-12-22T14:29:53.068Z,18588.53
2022-12-22T14:32:42.447Z,18574.28
2022-12-22T14:35:32.212Z,18588.53
2022-12-22T14:38:22.818Z,18574.28
2022-12-22T14:40:56.768Z,18590.56
2022-12-22T14:43:31.527Z,18572.25
2022-12-22T14:46:09.043Z,18562.09
2022-12-22T14:48:41.242Z,18553.97
2022-12-22T14:51:09.549Z,18551.94
2022-12-22T14:53:47.665Z,18553.97
2022-12-22T14:56:18.497Z,18564.13
2022-12-22T14:58:49.477Z,18562.09
2022-12-22T15:01:28.108Z,18558.03
2022-12-22T15:04:06.264Z,18521.47
2022-12-22T15:06:41.588Z,18560.06
2022-12-22T15:10:13.196Z,18551.94
2022-12-22T15:12:21.450Z,18553.97
2022-12-22T15:14:49.922Z,18594.63
2022-12-22T15:17:26.536Z,18580.41
2022-12-22T15:19:59.631Z,18586.50
2022-12-22T15:22:27.777Z,18606.81
2022-12-22T15:24:55.892Z,18560.06
2022-12-22T15:27:23.994Z,18592.59
2022-12-22T15:29:51.995Z,18572.25
2022-12-22T15:32:21.452Z,18580.41
2022-12-22T15:34:49.496Z,18570.22
2022-12-22T15:37:17.730Z,18578.38
2022-12-22T15:39:45.839Z,18570.22
2022-12-22T15:42:13.922Z,18562.09
2022-12-22T15:44:41.949Z,18562.09
2022-12-22T15:47:13.565Z,18570.22
2022-12-22T15:49:43.168Z,18588.53
2022-12-22T15:52:14.644Z,18578.38
2022-12-22T15:54:42.954Z,18517.41
2022-12-22T15:57:14.527Z,18537.72
2022-12-22T15:59:44.943Z,18525.53
2022-12-22T16:02:14.640Z,18523.50
2022-12-22T16:04:44.596Z,18547.88
2022-12-22T16:07:15.650Z,18525.53
2022-12-22T16:09:48.527Z,18513.34
2022-12-22T16:12:19.962Z,18493.03
2022-12-22T16:14:52.049Z,18493.03
2022-12-22T16:17:22.645Z,18468.66
2022-12-22T16:19:52.282Z,18450.38
2022-12-22T16:22:27.637Z,18436.16
2022-12-22T16:24:55.821Z,18454.44
2022-12-22T16:27:24.403Z,18460.53
2022-12-22T16:29:55.454Z,18442.25
2022-12-22T16:32:26.621Z,18460.53
2022-12-22T16:35:01.912Z,18484.91
2022-12-22T16:37:30.287Z,18432.09
2022-12-22T16:39:58.655Z,18432.09
2022-12-22T16:45:22.650Z,18391.44
2022-12-22T16:47:54.296Z,18395.50
2022-12-22T16:50:32.605Z,18383.31
2022-12-22T16:53:02.344Z,18340.66
2022-12-22T16:55:31.521Z,18271.59
2022-12-22T16:57:59.657Z,18186.25
2022-12-22T17:00:31.520Z,18216.72
2022-12-22T17:03:06.301Z,18206.56
2022-12-22T17:05:44.704Z,18178.13
2022-12-22T17:08:23.477Z,18172.03
2022-12-22T17:10:54.099Z,18141.56
2022-12-22T17:13:23.370Z,18143.59
2022-12-22T17:15:51.475Z,18143.59
2022-12-22T17:18:22.553Z,18143.59
2022-12-22T17:20:56.658Z,18139.53
2022-12-22T17:23:35.010Z,18135.47
2022-12-22T17:26:07.936Z,18131.41
2022-12-22T17:28:38.158Z,18147.66
2022-12-22T17:31:06.980Z,18131.41
2022-12-22T17:33:35.129Z,18107.03
2022-12-22T17:36:05.180Z,18113.13
2022-12-22T17:38:34.506Z,18131.41
2022-12-22T17:41:03.201Z,18068.44
2022-12-22T17:43:31.291Z,18098.91
2022-12-22T17:45:59.712Z,18109.06
2022-12-22T17:48:28.099Z,18117.19
2022-12-22T17:50:56.521Z,18115.16
2022-12-22T17:53:26.328Z,18115.16
2022-12-22T17:56:09.934Z,18131.41
2022-12-22T17:58:38.378Z,18094.84
2022-12-22T18:01:06.972Z,18107.03
2022-12-22T18:03:35.371Z,18094.84
2022-12-22T18:06:03.752Z,18117.19
2022-12-22T18:08:33.562Z,18137.50
2022-12-22T18:11:03.451Z,18119.22
2022-12-22T18:13:32.987Z,18102.97
2022-12-22T18:16:01.391Z,18131.41
2022-12-22T18:18:29.929Z,18090.78
2022-12-22T18:21:06.521Z,18107.03
2022-12-22T18:23:40.264Z,18102.97
2022-12-22T18:26:14.809Z,18092.81
2022-12-22T18:28:43.190Z,18096.88
2022-12-22T18:31:11.619Z,18102.97
2022-12-22T18:33:40.073Z,18121.25
2022-12-22T18:36:15.464Z,18105.00
2022-12-22T18:38:46.377Z,18129.38
2022-12-22T18:41:20.210Z,18096.88
2022-12-22T18:43:48.632Z,18119.22
2022-12-22T18:46:17.164Z,18098.91
2022-12-22T18:48:45.790Z,18107.03
2022-12-22T18:51:20.383Z,18107.03
2022-12-22T18:53:51.123Z,18121.25
2022-12-22T18:56:20.072Z,18119.22
2022-12-22T18:58:48.464Z,18107.03
2022-12-22T19:01:22.600Z,18109.06
2022-12-22T19:03:52.665Z,18088.75
2022-12-22T19:06:22.608Z,18102.97
2022-12-22T19:08:52.866Z,18100.94
2022-12-22T19:11:25.991Z,18109.06
2022-12-22T19:13:54.510Z,18078.59
2022-12-22T19:16:26.613Z,18107.03
2022-12-22T19:18:57.031Z,18090.78
2022-12-22T19:21:25.835Z,18086.72
2022-12-22T19:23:55.557Z,18070.47
2022-12-22T19:26:26.359Z,18090.78
2022-12-22T19:28:59.344Z,18102.97
2022-12-22T19:31:30.564Z,18078.59
2022-12-22T19:34:01.661Z,18100.94
2022-12-22T19:36:31.556Z,18094.84
2022-12-22T19:39:05.050Z,18084.69
2022-12-22T19:41:42.928Z,18060.31
2022-12-22T19:44:24.113Z,18060.31
2022-12-22T19:46:53.707Z,18052.19
2022-12-22T19:49:25.213Z,18060.31
2022-12-22T19:51:53.657Z,18064.38
2022-12-22T19:54:23.387Z,18052.19
2022-12-22T19:56:54.458Z,18021.72
2022-12-22T19:59:37.295Z,18052.19
2022-12-22T20:02:25.917Z,18040.00
2022-12-22T20:04:55.775Z,18001.41
2022-12-22T20:07:26.591Z,18048.13
2022-12-22T20:09:56.393Z,18048.13
2022-12-22T20:12:31.385Z,18050.16
2022-12-22T20:15:00.170Z,18042.03
2022-12-22T20:17:28.846Z,18013.59
2022-12-22T20:19:56.879Z,17989.22
2022-12-22T20:22:25.558Z,18029.84
2022-12-22T20:24:55.331Z,18009.53
2022-12-22T20:27:30.841Z,18001.41
2022-12-22T20:29:58.937Z,18001.41
2022-12-22T20:32:28.448Z,18027.81
2022-12-22T20:34:57.005Z,18009.53
2022-12-22T20:37:25.516Z,18037.97
2022-12-22T20:39:54.934Z,17989.22
2022-12-22T20:42:25.583Z,18009.53
2022-12-22T20:45:02.878Z,17983.13
2022-12-22T20:47:33.220Z,18054.22
2022-12-22T20:50:01.525Z,18035.94
2022-12-22T20:52:29.547Z,17981.09
2022-12-22T20:54:59.033Z,18027.81
2022-12-22T20:57:28.617Z,18001.41
2022-12-22T20:59:57.040Z,18031.88
2022-12-22T21:02:28.955Z,18050.16
2022-12-22T21:04:57.412Z,18003.44
2022-12-22T21:07:26.017Z,18017.66
2022-12-22T21:09:54.152Z,17993.28
2022-12-22T21:12:23.600Z,18046.09
2022-12-22T21:14:51.979Z,18003.44
2022-12-22T21:17:20.676Z,17995.31
2022-12-22T21:19:49.733Z,18009.53
2022-12-22T21:22:17.852Z,18003.44
2022-12-22T21:24:45.971Z,17991.25
2022-12-22T21:27:21.063Z,17983.13
2022-12-22T21:29:50.545Z,17999.38
2022-12-22T21:32:18.662Z,17985.16
2022-12-22T21:34:46.801Z,17977.03
2022-12-22T21:37:20.315Z,17977.03
2022-12-22T21:39:48.659Z,17954.69
2022-12-22T21:42:17.887Z,17936.41
2022-12-22T21:44:46.491Z,17922.16
2022-12-22T21:47:21.060Z,17972.97
2022-12-22T21:49:49.851Z,17993.28
2022-12-22T21:52:17.954Z,17962.81
2022-12-22T21:54:46.049Z,17985.16
2022-12-22T21:57:16.850Z,17948.59
2022-12-22T21:59:45.060Z,17932.34
2022-12-22T22:02:19.234Z,17981.09
2022-12-22T22:04:54.276Z,17981.09
2022-12-22T22:07:23.398Z,17932.34
2022-12-22T22:09:51.560Z,17928.28
2022-12-22T22:12:36.846Z,17958.75
2022-12-22T22:15:07.119Z,17966.88
2022-12-22T22:17:36.695Z,17991.25
2022-12-22T22:20:07.805Z,17954.69
2022-12-22T22:22:35.950Z,17985.16
2022-12-22T22:25:04.187Z,17970.94
2022-12-22T22:27:32.321Z,17979.06
2022-12-22T22:30:00.417Z,17944.53
2022-12-22T22:32:28.895Z,17985.16
2022-12-22T22:34:58.378Z,18009.53
2022-12-22T22:37:26.614Z,17979.06
2022-12-22T22:39:54.713Z,17995.31
2022-12-22T22:42:23.008Z,18013.59
2022-12-22T22:44:51.110Z,17989.22
2022-12-22T22:47:19.219Z,18027.81
2022-12-22T22:49:47.356Z,18027.81
2022-12-22T22:52:16.913Z,18062.34
2022-12-22T22:54:45.281Z,18070.47
2022-12-22T22:57:13.495Z,18070.47
2022-12-22T22:59:41.601Z,18090.78
2022-12-22T23:02:10.730Z,18082.66
2022-12-22T23:04:39.016Z,18107.03
2022-12-22T23:07:07.102Z,18096.88
2022-12-22T23:09:36.637Z,18121.25
2022-12-22T23:12:05.462Z,18088.75
2022-12-22T23:14:33.773Z,18145.63
2022-12-22T23:17:01.917Z,18117.19
2022-12-22T23:19:30.123Z,18102.97
2022-12-22T23:21:58.312Z,18098.91
2022-12-22T23:24:26.650Z,18123.28
2022-12-22T23:26:56.130Z,18094.84
2022-12-22T23:29:24.303Z,18113.13
2022-12-22T23:31:52.558Z,18098.91
2022-12-22T23:34:20.874Z,18121.25
2022-12-22T23:36:49.069Z,18121.25
2022-12-22T23:39:17.220Z,18131.41
2022-12-22T23:41:45.383Z,18111.09
2022-12-22T23:44:14.937Z,18088.75
2022-12-22T23:46:43.235Z,18092.81
2022-12-22T23:49:13.106Z,18123.28
2022-12-22T23:51:41.221Z,18105.00
2022-12-22T23:54:09.387Z,18123.28
2022-12-22T23:56:37.572Z,18139.53
2022-12-22T23:59:05.681Z,18082.66
